Time;durP1;ratioP1;P1;durP2;ratioP2;P2;SDS_P1;SDS_P2;PMS_P1;PMS_P2;Temp;Humidity;BMP_temperature;BMP_pressure;BME280_temperature;BME280_humidity;BME280_pressure;Samples;Min_cycle;Max_cycle;Signal;HPM_P1;HPM_P2
2021/10/03 00:01:26;;;;;;;30.20;25.95;;;;;;;;;;5054994;28;20549;-69
2021/10/03 00:03:54;;;;;;;33.08;29.65;;;;;;;;;;5053087;28;20051;-69
2021/10/03 00:06:20;;;;;;;29.05;24.35;;;;;;;;;;5051520;28;20124;-70
2021/10/03 00:08:46;;;;;;;32.70;26.48;;;;;;;;;;5053239;28;20474;-69
2021/10/03 00:11:12;;;;;;;30.98;25.70;;;;;;;;;;5054013;28;20028;-69
2021/10/03 00:13:38;;;;;;;28.88;25.63;;;;;;;;;;5053441;28;20018;-69
2021/10/03 00:16:04;;;;;;;33.13;28.27;;;;;;;;;;5054453;28;20040;-69
2021/10/03 00:18:31;;;;;;;27.98;24.67;;;;;;;;;;5053836;28;20082;-69
2021/10/03 00:20:57;;;;;;;29.30;25.10;;;;;;;;;;5051313;28;20025;-71
2021/10/03 00:23:23;;;;;;;37.47;25.40;;;;;;;;;;5052218;28;20021;-70
2021/10/03 00:25:49;;;;;;;30.38;24.48;;;;;;;;;;5053358;28;20025;-69
2021/10/03 00:28:15;;;;;;;26.83;23.98;;;;;;;;;;5055332;28;20028;-70
2021/10/03 00:30:41;;;;;;;28.67;25.58;;;;;;;;;;5052824;28;20074;-69
2021/10/03 00:33:08;;;;;;;26.60;23.67;;;;;;;;;;5053030;28;20079;-71
2021/10/03 00:35:34;;;;;;;28.85;25.67;;;;;;;;;;5054301;28;20025;-69
2021/10/03 00:38:02;;;;;;;27.15;24.20;;;;;;;;;;5052953;28;20466;-69
2021/10/03 00:40:29;;;;;;;28.27;25.27;;;;;;;;;;5052044;28;20029;-69
2021/10/03 00:42:55;;;;;;;26.95;22.35;;;;;;;;;;5049744;28;20344;-69
2021/10/03 00:45:21;;;;;;;25.70;23.10;;;;;;;;;;5049595;28;20021;-68
2021/10/03 00:47:47;;;;;;;28.88;24.85;;;;;;;;;;5049492;28;20437;-69
2021/10/03 00:50:13;;;;;;;25.08;21.58;;;;;;;;;;5052305;28;20025;-70
2021/10/03 00:52:40;;;;;;;23.98;20.90;;;;;;;;;;5051739;28;20554;-69
2021/10/03 00:55:06;;;;;;;25.38;21.08;;;;;;;;;;5052687;28;20053;-69
2021/10/03 00:57:32;;;;;;;26.60;23.25;;;;;;;;;;5052755;28;20021;-70
2021/10/03 00:59:58;;;;;;;23.15;20.65;;;;;;;;;;5052972;28;20021;-69
2021/10/03 01:02:25;;;;;;;27.92;20.52;;;;;;;;;;5052420;28;20036;-69
2021/10/03 01:04:51;;;;;;;22.90;20.45;;;;;;;;;;5054013;28;20537;-69
2021/10/03 01:07:17;;;;;;;28.48;21.73;;;;;;;;;;5052611;28;20104;-74
2021/10/03 01:09:44;;;;;;;25.20;19.73;;;;;;;;;;5052967;28;20112;-69
2021/10/03 01:12:12;;;;;;;25.65;21.80;;;;;;;;;;5051616;28;20048;-70
2021/10/03 01:14:38;;;;;;;26.35;23.55;;;;;;;;;;5048787;28;20028;-75
2021/10/03 01:17:04;;;;;;;23.50;21.00;;;;;;;;;;5051994;28;20021;-70
2021/10/03 01:19:33;;;;;;;24.42;19.33;;;;;;;;;;5052077;28;20024;-71
2021/10/03 01:21:59;;;;;;;21.50;19.20;;;;;;;;;;5049562;28;20032;-69
2021/10/03 01:24:25;;;;;;;24.52;18.77;;;;;;;;;;5049024;28;20029;-74
2021/10/03 01:26:51;;;;;;;23.75;19.73;;;;;;;;;;5050781;28;20589;-69
2021/10/03 01:29:17;;;;;;;24.75;19.52;;;;;;;;;;5054296;28;20049;-70
2021/10/03 01:31:43;;;;;;;21.58;19.20;;;;;;;;;;5054394;28;20038;-70
2021/10/03 01:34:09;;;;;;;21.60;19.10;;;;;;;;;;5055029;28;20076;-69
2021/10/03 01:36:36;;;;;;;23.05;20.70;;;;;;;;;;5053081;28;20043;-69
2021/10/03 01:39:02;;;;;;;38.08;19.95;;;;;;;;;;5050805;28;20053;-71
2021/10/03 01:41:43;;;;;;;20.27;16.80;;;;;;;;;;5042082;28;20059;-68
2021/10/03 01:44:11;;;;;;;24.02;20.35;;;;;;;;;;5053962;28;20482;-70
2021/10/03 01:46:37;;;;;;;23.05;19.15;;;;;;;;;;5053944;28;20103;-70
2021/10/03 01:49:03;;;;;;;21.55;17.83;;;;;;;;;;5053534;28;20025;-69
2021/10/03 01:51:29;;;;;;;21.10;17.85;;;;;;;;;;5049842;28;20477;-71
2021/10/03 01:53:58;;;;;;;28.17;21.58;;;;;;;;;;5054583;28;20017;-69
2021/10/03 01:56:24;;;;;;;20.98;18.73;;;;;;;;;;5068074;28;20048;-69
2021/10/03 01:58:51;;;;;;;20.13;18.08;;;;;;;;;;5073000;28;20028;-70
2021/10/03 02:01:19;;;;;;;21.17;18.95;;;;;;;;;;5069656;28;20033;-70
2021/10/03 02:03:45;;;;;;;18.90;16.88;;;;;;;;;;5069393;28;20089;-70
2021/10/03 02:06:12;;;;;;;20.38;18.27;;;;;;;;;;5070652;28;20021;-69
2021/10/03 02:08:38;;;;;;;22.48;17.90;;;;;;;;;;5074131;28;20374;-69
2021/10/03 02:11:04;;;;;;;23.45;18.13;;;;;;;;;;5071192;28;20067;-69
2021/10/03 02:13:30;;;;;;;20.35;17.23;;;;;;;;;;5070748;28;20028;-69
2021/10/03 02:15:56;;;;;;;19.40;16.55;;;;;;;;;;5074118;28;20021;-70
2021/10/03 02:18:22;;;;;;;19.63;17.63;;;;;;;;;;5073733;28;20025;-69
2021/10/03 02:20:52;;;;;;;23.83;17.77;;;;;;;;;;5073211;28;20025;-71
2021/10/03 02:23:18;;;;;;;23.63;18.10;;;;;;;;;;5074008;28;20020;-69
2021/10/03 02:25:45;;;;;;;21.23;17.58;;;;;;;;;;5072940;28;20029;-69
2021/10/03 02:28:12;;;;;;;20.70;17.80;;;;;;;;;;5073289;28;20020;-69
2021/10/03 02:30:39;;;;;;;17.58;15.63;;;;;;;;;;5073717;28;20107;-71
2021/10/03 02:33:05;;;;;;;27.58;19.60;;;;;;;;;;5072735;28;20043;-69
2021/10/03 02:35:31;;;;;;;20.48;18.25;;;;;;;;;;5073306;28;20066;-69
2021/10/03 02:37:57;;;;;;;19.63;17.30;;;;;;;;;;5073302;28;20526;-69
2021/10/03 02:40:23;;;;;;;19.60;17.02;;;;;;;;;;5071399;28;20032;-69
2021/10/03 02:42:49;;;;;;;20.27;16.65;;;;;;;;;;5069249;28;20024;-73
2021/10/03 02:45:15;;;;;;;18.50;16.45;;;;;;;;;;5072698;28;20036;-69
2021/10/03 02:47:41;;;;;;;20.13;16.67;;;;;;;;;;5072847;28;20031;-69
2021/10/03 02:50:08;;;;;;;17.77;15.88;;;;;;;;;;5073095;28;20064;-69
2021/10/03 02:52:35;;;;;;;25.35;18.35;;;;;;;;;;5072597;28;20032;-70
2021/10/03 02:55:01;;;;;;;18.63;16.65;;;;;;;;;;5071217;28;20170;-70
2021/10/03 02:57:27;;;;;;;21.20;15.65;;;;;;;;;;5056387;28;20056;-69
2021/10/03 02:59:53;;;;;;;23.42;16.40;;;;;;;;;;5056544;28;20031;-69
2021/10/03 03:02:19;;;;;;;17.83;15.88;;;;;;;;;;5056312;28;20032;-73
2021/10/03 03:04:45;;;;;;;20.35;17.98;;;;;;;;;;5056598;28;20028;-69
2021/10/03 03:07:11;;;;;;;22.05;16.35;;;;;;;;;;5055702;28;20025;-69
2021/10/03 03:09:37;;;;;;;19.27;17.33;;;;;;;;;;5055859;28;20044;-72
2021/10/03 03:12:04;;;;;;;19.38;16.63;;;;;;;;;;5056479;28;20037;-71
2021/10/03 03:14:30;;;;;;;20.60;16.48;;;;;;;;;;5057169;28;20537;-70
2021/10/03 03:16:56;;;;;;;18.02;16.13;;;;;;;;;;5056890;28;20032;-69
2021/10/03 03:19:22;;;;;;;19.20;16.60;;;;;;;;;;5053684;28;20079;-69
2021/10/03 03:21:48;;;;;;;22.15;16.95;;;;;;;;;;5053340;28;20017;-70
2021/10/03 03:24:14;;;;;;;23.67;17.88;;;;;;;;;;5054259;28;20029;-70
2021/10/03 03:26:40;;;;;;;16.98;15.15;;;;;;;;;;5054859;28;20032;-69
2021/10/03 03:29:06;;;;;;;17.33;15.52;;;;;;;;;;5052504;28;20028;-69
2021/10/03 03:31:32;;;;;;;17.50;15.40;;;;;;;;;;5052680;28;20048;-69
2021/10/03 03:33:58;;;;;;;18.27;15.40;;;;;;;;;;5052403;28;20068;-69
2021/10/03 03:36:24;;;;;;;20.58;17.15;;;;;;;;;;5055664;28;20025;-69
2021/10/03 03:38:50;;;;;;;16.77;14.95;;;;;;;;;;5056167;28;20025;-69
2021/10/03 03:41:17;;;;;;;19.45;14.60;;;;;;;;;;5055487;28;20025;-70
2021/10/03 03:43:43;;;;;;;18.38;15.38;;;;;;;;;;5055530;28;20017;-70
2021/10/03 03:46:10;;;;;;;17.63;15.38;;;;;;;;;;5056400;28;20103;-69
2021/10/03 03:48:36;;;;;;;16.55;13.48;;;;;;;;;;5055910;28;20033;-68
2021/10/03 03:51:04;;;;;;;20.50;14.68;;;;;;;;;;5055088;28;20079;-70
2021/10/03 03:53:30;;;;;;;15.60;13.98;;;;;;;;;;5054738;28;20481;-69
2021/10/03 03:55:56;;;;;;;15.57;13.32;;;;;;;;;;5067194;28;20110;-69
2021/10/03 03:58:22;;;;;;;15.48;13.13;;;;;;;;;;5074922;28;20488;-69
2021/10/03 04:00:48;;;;;;;15.60;13.98;;;;;;;;;;5071423;28;20482;-68
2021/10/03 04:03:14;;;;;;;25.02;16.58;;;;;;;;;;5070236;28;20033;-69
2021/10/03 04:05:42;;;;;;;15.95;13.48;;;;;;;;;;5075001;28;20539;-69
2021/10/03 04:08:08;;;;;;;16.65;14.02;;;;;;;;;;5075669;28;20074;-69
2021/10/03 04:10:34;;;;;;;13.77;12.38;;;;;;;;;;5075463;28;20107;-69
2021/10/03 04:13:00;;;;;;;15.77;12.23;;;;;;;;;;5075445;28;20040;-70
2021/10/03 04:15:26;;;;;;;15.13;13.63;;;;;;;;;;5076589;28;20025;-70
2021/10/03 04:17:52;;;;;;;14.93;13.50;;;;;;;;;;5076252;28;20128;-70
2021/10/03 04:20:18;;;;;;;16.35;13.43;;;;;;;;;;5075741;28;20029;-69
2021/10/03 04:22:44;;;;;;;19.05;12.02;;;;;;;;;;5075473;28;20047;-70
2021/10/03 04:25:10;;;;;;;16.27;13.23;;;;;;;;;;5076121;28;20111;-70
2021/10/03 04:27:36;;;;;;;22.50;12.98;;;;;;;;;;5075898;28;20020;-69
2021/10/03 04:30:03;;;;;;;13.13;11.70;;;;;;;;;;5073966;28;20059;-70
2021/10/03 04:32:29;;;;;;;13.85;11.68;;;;;;;;;;5076696;28;20059;-71
2021/10/03 04:34:56;;;;;;;13.45;11.15;;;;;;;;;;5076203;28;20045;-70
2021/10/03 04:37:23;;;;;;;14.45;12.27;;;;;;;;;;5074873;28;20036;-68
2021/10/03 04:39:50;;;;;;;13.25;11.95;;;;;;;;;;5075524;28;20021;-68
2021/10/03 04:42:16;;;;;;;12.32;11.02;;;;;;;;;;5075121;28;20021;-70
2021/10/03 04:44:42;;;;;;;12.45;10.82;;;;;;;;;;5076676;28;20067;-70
2021/10/03 04:47:08;;;;;;;14.80;13.27;;;;;;;;;;5077458;28;20474;-70
2021/10/03 04:49:34;;;;;;;13.27;11.35;;;;;;;;;;5076995;28;20509;-69
2021/10/03 04:52:00;;;;;;;12.43;11.18;;;;;;;;;;5076642;28;20074;-70
2021/10/03 04:54:26;;;;;;;13.20;11.90;;;;;;;;;;5073403;28;20035;-70
2021/10/03 04:56:52;;;;;;;14.48;11.30;;;;;;;;;;5075342;28;20052;-69
2021/10/03 04:59:18;;;;;;;19.60;10.43;;;;;;;;;;5075624;28;20074;-71
2021/10/03 05:01:45;;;;;;;12.48;11.25;;;;;;;;;;5075649;28;20059;-69
2021/10/03 05:04:11;;;;;;;14.18;12.70;;;;;;;;;;5074713;28;20033;-70
2021/10/03 05:06:37;;;;;;;12.77;11.57;;;;;;;;;;5073585;28;20077;-70
2021/10/03 05:09:03;;;;;;;15.48;12.80;;;;;;;;;;5074076;28;20029;-70
2021/10/03 05:11:30;;;;;;;12.50;11.20;;;;;;;;;;5075038;28;20139;-70
2021/10/03 05:13:56;;;;;;;16.77;12.23;;;;;;;;;;5074459;28;20025;-69
2021/10/03 05:16:22;;;;;;;14.95;12.80;;;;;;;;;;5073690;28;20039;-70
2021/10/03 05:18:48;;;;;;;12.82;11.13;;;;;;;;;;5070796;28;20040;-70
2021/10/03 05:21:14;;;;;;;14.73;13.05;;;;;;;;;;5071320;28;20043;-71
2021/10/03 05:23:40;;;;;;;14.25;12.05;;;;;;;;;;5071422;28;20021;-71
2021/10/03 05:26:06;;;;;;;15.40;12.45;;;;;;;;;;5074974;28;20466;-70
2021/10/03 05:28:32;;;;;;;12.25;10.98;;;;;;;;;;5073741;28;20573;-70
2021/10/03 05:30:58;;;;;;;12.98;11.40;;;;;;;;;;5073803;28;20436;-70
2021/10/03 05:33:24;;;;;;;16.30;12.05;;;;;;;;;;5074044;28;20024;-69
2021/10/03 05:35:50;;;;;;;12.02;10.82;;;;;;;;;;5073544;28;20025;-69
2021/10/03 05:38:16;;;;;;;14.95;10.82;;;;;;;;;;5073333;28;20027;-70
2021/10/03 05:40:42;;;;;;;11.95;10.77;;;;;;;;;;5074508;28;20021;-69
2021/10/03 05:43:08;;;;;;;10.75;9.65;;;;;;;;;;5073592;28;20031;-69
2021/10/03 05:45:34;;;;;;;11.30;9.77;;;;;;;;;;5073674;28;20466;-69
2021/10/03 05:48:00;;;;;;;11.27;10.00;;;;;;;;;;5073646;28;20024;-69
2021/10/03 05:50:27;;;;;;;11.00;10.00;;;;;;;;;;5074033;28;20080;-69
2021/10/03 05:52:53;;;;;;;11.57;10.48;;;;;;;;;;5073205;28;20041;-70
2021/10/03 05:55:19;;;;;;;13.48;12.02;;;;;;;;;;5073286;28;20182;-71
2021/10/03 05:57:45;;;;;;;18.38;9.63;;;;;;;;;;5075987;28;20027;-69
2021/10/03 06:00:11;;;;;;;13.93;10.07;;;;;;;;;;5070248;28;20035;-72
2021/10/03 06:02:37;;;;;;;12.32;10.57;;;;;;;;;;5059253;28;20021;-70
2021/10/03 06:05:06;;;;;;;19.00;9.57;;;;;;;;;;5069588;28;20378;-70
2021/10/03 06:07:32;;;;;;;23.55;10.38;;;;;;;;;;5073570;28;20099;-69
2021/10/03 06:09:58;;;;;;;13.25;10.77;;;;;;;;;;5074166;28;20024;-71
2021/10/03 06:12:24;;;;;;;11.35;10.27;;;;;;;;;;5073870;28;20051;-69
2021/10/03 06:14:50;;;;;;;10.68;9.65;;;;;;;;;;5078645;28;20381;-68
2021/10/03 06:17:16;;;;;;;13.45;11.38;;;;;;;;;;5093121;28;20570;-71
2021/10/03 06:19:42;;;;;;;12.45;11.27;;;;;;;;;;5096941;28;20579;-72
2021/10/03 06:22:08;;;;;;;12.25;11.05;;;;;;;;;;5096785;28;20028;-72
2021/10/03 06:24:34;;;;;;;17.45;10.00;;;;;;;;;;5088341;28;20470;-70
2021/10/03 06:27:00;;;;;;;13.27;11.43;;;;;;;;;;5077096;28;20024;-71
2021/10/03 06:29:26;;;;;;;13.55;12.15;;;;;;;;;;5079763;28;20112;-72
2021/10/03 06:31:52;;;;;;;15.70;12.23;;;;;;;;;;5080284;28;20032;-72
2021/10/03 06:34:18;;;;;;;13.70;12.38;;;;;;;;;;5079922;28;20023;-71
2021/10/03 06:36:44;;;;;;;15.90;13.02;;;;;;;;;;5079345;28;20025;-72
2021/10/03 06:39:11;;;;;;;15.32;13.70;;;;;;;;;;5078275;28;20466;-68
2021/10/03 06:41:37;;;;;;;17.10;12.77;;;;;;;;;;5078096;28;20414;-69
2021/10/03 06:44:03;;;;;;;13.15;10.98;;;;;;;;;;5077624;28;20024;-68
2021/10/03 06:46:29;;;;;;;12.05;10.82;;;;;;;;;;5097182;28;20082;-69
2021/10/03 06:48:56;;;;;;;13.45;11.27;;;;;;;;;;5098352;28;20124;-68
2021/10/03 06:51:22;;;;;;;18.40;10.80;;;;;;;;;;5098410;28;20100;-69
2021/10/03 06:53:48;;;;;;;15.55;12.02;;;;;;;;;;5098605;28;20032;-68
2021/10/03 06:56:14;;;;;;;19.13;12.90;;;;;;;;;;5098402;28;20047;-68
2021/10/03 06:58:41;;;;;;;23.45;11.38;;;;;;;;;;5097606;28;20024;-67
2021/10/03 07:01:07;;;;;;;17.73;12.48;;;;;;;;;;5097533;28;20024;-70
2021/10/03 07:03:33;;;;;;;13.52;12.07;;;;;;;;;;5098372;28;20058;-68
2021/10/03 07:06:00;;;;;;;12.40;10.85;;;;;;;;;;5097881;28;20051;-68
2021/10/03 07:08:26;;;;;;;14.35;11.32;;;;;;;;;;5097941;28;20522;-68
2021/10/03 07:10:53;;;;;;;15.07;11.50;;;;;;;;;;5098082;28;20016;-68
2021/10/03 07:13:19;;;;;;;11.73;9.82;;;;;;;;;;5098663;28;20093;-68
2021/10/03 07:15:45;;;;;;;12.57;11.27;;;;;;;;;;5097947;28;20031;-67
2021/10/03 07:18:12;;;;;;;19.48;9.07;;;;;;;;;;5097584;28;20475;-66
2021/10/03 07:20:38;;;;;;;10.30;9.35;;;;;;;;;;5097484;28;20071;-68
2021/10/03 07:23:04;;;;;;;12.02;10.07;;;;;;;;;;5097453;28;20431;-68
2021/10/03 07:25:30;;;;;;;11.05;7.57;;;;;;;;;;5097592;28;20028;-68
2021/10/03 07:27:56;;;;;;;9.88;6.88;;;;;;;;;;5097744;28;20098;-67
2021/10/03 07:30:22;;;;;;;7.97;6.35;;;;;;;;;;5092901;28;20500;-69
2021/10/03 07:32:48;;;;;;;10.05;5.57;;;;;;;;;;5075810;28;20537;-68
2021/10/03 07:35:14;;;;;;;6.82;5.57;;;;;;;;;;5075616;28;20497;-69
2021/10/03 07:37:40;;;;;;;9.13;6.95;;;;;;;;;;5075247;28;20795;-69
2021/10/03 07:40:07;;;;;;;8.30;5.07;;;;;;;;;;5075489;28;20024;-68
2021/10/03 07:42:33;;;;;;;13.18;5.78;;;;;;;;;;5075552;28;20025;-68
2021/10/03 07:44:59;;;;;;;11.80;6.18;;;;;;;;;;5075571;28;20070;-68
2021/10/03 07:47:25;;;;;;;5.97;5.43;;;;;;;;;;5075754;28;20521;-68
2021/10/03 07:49:51;;;;;;;9.02;5.72;;;;;;;;;;5076009;28;20090;-69
2021/10/03 07:52:17;;;;;;;5.82;5.15;;;;;;;;;;5075650;28;20132;-69
2021/10/03 07:54:43;;;;;;;13.15;5.93;;;;;;;;;;5075028;28;20017;-69
2021/10/03 07:57:12;;;;;;;7.15;4.97;;;;;;;;;;5076290;28;20070;-69
2021/10/03 07:59:38;;;;;;;7.40;4.68;;;;;;;;;;5075238;28;20031;-69
2021/10/03 08:02:04;;;;;;;8.95;5.22;;;;;;;;;;5075522;28;20035;-69
2021/10/03 08:04:30;;;;;;;6.20;4.78;;;;;;;;;;5075161;28;20029;-70
2021/10/03 08:06:56;;;;;;;12.05;5.70;;;;;;;;;;5075280;28;20068;-69
2021/10/03 08:09:22;;;;;;;6.93;5.13;;;;;;;;;;5071105;28;20023;-71
2021/10/03 08:11:48;;;;;;;7.72;4.93;;;;;;;;;;5075744;28;20029;-70
2021/10/03 08:14:14;;;;;;;14.60;5.18;;;;;;;;;;5075045;28;20060;-68
2021/10/03 08:16:40;;;;;;;7.53;5.50;;;;;;;;;;5075360;28;20405;-67
2021/10/03 08:19:06;;;;;;;5.90;5.20;;;;;;;;;;5074397;28;20035;-68
2021/10/03 08:21:32;;;;;;;5.97;4.65;;;;;;;;;;5076006;28;20035;-68
2021/10/03 08:23:59;;;;;;;7.50;4.30;;;;;;;;;;5075819;28;20028;-68
2021/10/03 08:26:25;;;;;;;9.70;4.50;;;;;;;;;;5074909;28;20391;-68
2021/10/03 08:29:00;;;;;;;10.05;5.10;;;;;;;;;;5072849;28;20021;-69
2021/10/03 08:31:28;;;;;;;6.65;3.88;;;;;;;;;;5070492;28;20064;-68
2021/10/03 08:33:54;;;;;;;4.75;4.05;;;;;;;;;;5073062;28;20074;-68
2021/10/03 08:36:20;;;;;;;6.25;5.65;;;;;;;;;;5074086;28;20029;-67
2021/10/03 08:38:46;;;;;;;6.57;5.40;;;;;;;;;;5073560;28;20111;-73
2021/10/03 08:41:12;;;;;;;6.75;5.35;;;;;;;;;;5073696;28;20032;-67
2021/10/03 08:43:38;;;;;;;5.35;4.85;;;;;;;;;;5074417;28;20035;-67
2021/10/03 08:46:06;;;;;;;6.00;4.25;;;;;;;;;;5072381;28;20489;-67
2021/10/03 08:48:32;;;;;;;5.40;4.60;;;;;;;;;;5073888;28;20087;-67
2021/10/03 08:50:59;;;;;;;5.22;4.30;;;;;;;;;;5072989;28;20025;-66
2021/10/03 08:53:42;;;;;;;5.93;5.32;;;;;;;;;;5074562;28;20025;-67
2021/10/03 08:56:13;;;;;;;5.40;4.95;;;;;;;;;;5074176;28;20174;-67
2021/10/03 08:58:39;;;;;;;5.43;4.93;;;;;;;;;;5073679;28;20572;-68
2021/10/03 09:01:07;;;;;;;5.18;4.50;;;;;;;;;;5073734;28;20047;-68
2021/10/03 09:03:33;;;;;;;5.38;4.88;;;;;;;;;;5074045;28;20028;-68
2021/10/03 09:06:02;;;;;;;7.35;4.93;;;;;;;;;;5074294;28;20016;-68
2021/10/03 09:08:30;;;;;;;7.38;5.30;;;;;;;;;;5071605;28;20141;-68
2021/10/03 09:10:57;;;;;;;10.70;4.60;;;;;;;;;;5074216;28;20028;-67
2021/10/03 09:13:39;;;;;;;8.82;5.15;;;;;;;;;;5073848;28;20024;-68
2021/10/03 09:16:07;;;;;;;10.85;6.00;;;;;;;;;;5073107;28;20462;-68
2021/10/03 09:18:34;;;;;;;6.47;4.75;;;;;;;;;;5075552;28;20390;-67
2021/10/03 09:21:00;;;;;;;5.78;5.15;;;;;;;;;;5073469;28;20021;-68
2021/10/03 09:23:26;;;;;;;6.70;5.45;;;;;;;;;;5074764;28;20381;-68
2021/10/03 09:25:52;;;;;;;5.45;4.95;;;;;;;;;;5074969;28;20020;-68
2021/10/03 09:28:29;;;;;;;6.13;5.53;;;;;;;;;;5085660;28;20443;-68
2021/10/03 09:31:11;;;;;;;8.00;6.03;;;;;;;;;;5082845;28;20032;-69
2021/10/03 09:33:37;;;;;;;;;;;;;;;;;;5084816;28;20541;-68
2021/10/03 09:36:04;;;;;;;7.45;6.35;;;;;;;;;;5083901;28;19904;-67
2021/10/03 09:38:30;;;;;;;5.85;5.35;;;;;;;;;;5076290;28;20028;-66
2021/10/03 09:41:00;;;;;;;7.68;6.25;;;;;;;;;;5074868;28;20117;-65
2021/10/03 09:43:42;;;;;;;6.63;4.85;;;;;;;;;;5073963;28;20028;-67
2021/10/03 09:46:10;;;;;;;7.13;6.25;;;;;;;;;;5073634;28;20017;-69
2021/10/03 09:48:51;;;;;;;6.07;5.47;;;;;;;;;;5082595;28;20061;-67
2021/10/03 09:54:36;;;;;;;9.50;7.18;;;;;;;;;;5063299;28;20262;-68
2021/10/03 09:57:05;;;;;;;12.68;6.88;;;;;;;;;;5049598;28;20116;-68
2021/10/03 09:59:49;;;;;;;6.05;5.45;;;;;;;;;;5065178;28;20526;-72
2021/10/03 10:02:15;;;;;;;6.97;5.13;;;;;;;;;;5064296;28;20082;-66
2021/10/03 10:04:42;;;;;;;6.97;5.15;;;;;;;;;;5074522;28;20024;-66
2021/10/03 10:07:18;;;;;;;6.35;5.75;;;;;;;;;;5074970;28;20021;-70
2021/10/03 10:09:45;;;;;;;8.43;5.78;;;;;;;;;;5075124;28;20016;-67
2021/10/03 10:12:12;;;;;;;6.05;5.45;;;;;;;;;;5065232;28;20036;-68
2021/10/03 10:14:39;;;;;;;7.30;6.35;;;;;;;;;;5074882;28;20028;-67
2021/10/03 10:17:25;;;;;;;13.88;8.52;;;;;;;;;;5074543;28;20037;-67
2021/10/03 10:19:51;;;;;;;19.00;9.93;;;;;;;;;;5060113;28;20017;-68
2021/10/03 10:22:31;;;;;;;25.70;10.15;;;;;;;;;;5072213;28;20077;-66
2021/10/03 10:24:58;;;;;;;11.95;10.57;;;;;;;;;;5057692;28;20025;-68
2021/10/03 10:27:44;;;;;;;21.38;11.25;;;;;;;;;;5054577;28;20033;-67
2021/10/03 10:30:12;;;;;;;12.23;10.63;;;;;;;;;;5039952;28;20025;-69
2021/10/03 10:32:59;;;;;;;24.40;11.15;;;;;;;;;;5054350;28;20065;-69
2021/10/03 10:35:26;;;;;;;11.20;9.35;;;;;;;;;;5034533;28;20571;-68
2021/10/03 10:38:13;;;;;;;14.45;10.20;;;;;;;;;;5052376;28;20025;-66
2021/10/03 10:40:39;;;;;;;15.48;12.60;;;;;;;;;;5037653;28;20163;-68
2021/10/03 10:43:27;;;;;;;18.10;12.73;;;;;;;;;;5052977;28;20037;-67
2021/10/03 10:45:53;;;;;;;19.55;13.40;;;;;;;;;;5038676;28;20029;-66
2021/10/03 10:48:21;;;;;;;16.95;12.32;;;;;;;;;;5053168;28;20029;-67
2021/10/03 10:51:07;;;;;;;17.27;12.65;;;;;;;;;;5053570;28;20028;-66
2021/10/03 10:53:35;;;;;;;14.10;11.07;;;;;;;;;;5038701;28;20033;-66
2021/10/03 10:56:03;;;;;;;13.95;10.63;;;;;;;;;;5064210;28;20048;-67
2021/10/03 10:58:30;;;;;;;10.98;9.55;;;;;;;;;;5072705;28;20032;-66
2021/10/03 11:00:59;;;;;;;13.48;10.32;;;;;;;;;;5072957;28;20024;-67
2021/10/03 11:03:45;;;;;;;19.15;11.73;;;;;;;;;;5073582;28;20021;-66
2021/10/03 11:06:11;;;;;;;12.27;9.43;;;;;;;;;;5058616;28;20098;-67
2021/10/03 11:08:58;;;;;;;11.30;9.63;;;;;;;;;;5072445;28;20016;-67
2021/10/03 11:11:24;;;;;;;10.65;8.45;;;;;;;;;;5057876;28;20025;-67
2021/10/03 11:13:51;;;;;;;23.70;9.70;;;;;;;;;;5073080;28;20028;-67
2021/10/03 11:16:21;;;;;;;11.95;7.57;;;;;;;;;;5076688;28;20050;-68
2021/10/03 11:18:51;;;;;;;25.80;10.65;;;;;;;;;;5076562;28;20064;-68
2021/10/03 11:21:19;;;;;;;6.05;5.55;;;;;;;;;;5076075;28;20028;-66
2021/10/03 11:23:47;;;;;;;4.70;4.30;;;;;;;;;;5076422;28;20025;-67
2021/10/03 11:26:13;;;;;;;6.13;5.53;;;;;;;;;;5076403;28;20073;-66
2021/10/03 11:28:55;;;;;;;4.88;4.40;;;;;;;;;;5076078;28;20025;-66
2021/10/03 11:31:44;;;;;;;5.55;4.65;;;;;;;;;;5076544;28;20086;-66
2021/10/03 11:34:10;;;;;;;6.82;5.07;;;;;;;;;;5061774;28;20024;-66
2021/10/03 11:36:51;;;;;;;5.32;4.82;;;;;;;;;;5073651;28;20038;-70
2021/10/03 11:39:17;;;;;;;6.20;4.38;;;;;;;;;;5073772;28;20112;-67
2021/10/03 11:41:51;;;;;;;5.75;4.82;;;;;;;;;;5075764;28;20543;-67
2021/10/03 11:44:17;;;;;;;17.17;5.47;;;;;;;;;;5075361;28;20035;-66
2021/10/03 11:47:05;;;;;;;5.80;4.47;;;;;;;;;;5075437;28;20024;-65
2021/10/03 11:49:31;;;;;;;6.93;5.35;;;;;;;;;;5061324;28;20028;-66
2021/10/03 11:51:58;;;;;;;10.45;5.30;;;;;;;;;;5075725;28;20428;-64
2021/10/03 11:54:32;;;;;;;6.22;4.40;;;;;;;;;;5075483;28;20108;-65
2021/10/03 11:56:58;;;;;;;4.93;4.43;;;;;;;;;;5075203;28;20135;-65
2021/10/03 11:59:24;;;;;;;8.40;4.45;;;;;;;;;;5075348;28;20307;-67
2021/10/03 12:01:50;;;;;;;8.57;4.63;;;;;;;;;;5073123;28;20032;-66
2021/10/03 12:04:31;;;;;;;4.47;4.07;;;;;;;;;;5073745;28;20123;-67
2021/10/03 12:06:57;;;;;;;5.43;4.63;;;;;;;;;;5075661;28;20024;-66
2021/10/03 12:09:27;;;;;;;11.98;5.40;;;;;;;;;;5075602;28;20031;-66
2021/10/03 12:11:55;;;;;;;5.90;5.30;;;;;;;;;;5075506;28;20036;-67
2021/10/03 12:14:21;;;;;;;5.95;3.75;;;;;;;;;;5068929;28;20033;-68
2021/10/03 12:16:52;;;;;;;4.68;4.28;;;;;;;;;;5070114;28;20369;-65
2021/10/03 12:19:18;;;;;;;;;;;;;;;;;;5074007;28;20032;-67
2021/10/03 12:21:44;;;;;;;5.82;4.40;;;;;;;;;;5073632;28;20416;-66
2021/10/03 12:24:11;;;;;;;4.95;4.45;;;;;;;;;;5073997;28;20024;-67
2021/10/03 12:26:45;;;;;;;5.93;4.18;;;;;;;;;;5073380;28;20024;-66
2021/10/03 12:29:14;;;;;;;9.80;4.47;;;;;;;;;;5071494;28;20032;-67
2021/10/03 12:31:56;;;;;;;5.35;4.50;;;;;;;;;;5074708;28;20028;-66
2021/10/03 12:34:31;;;;;;;4.70;4.15;;;;;;;;;;5073822;28;20028;-67
2021/10/03 12:36:58;;;;;;;6.22;4.65;;;;;;;;;;5071330;28;20422;-67
2021/10/03 12:39:26;;;;;;;4.60;4.20;;;;;;;;;;5073421;28;20024;-67
2021/10/03 12:41:53;;;;;;;6.18;5.22;;;;;;;;;;5073312;28;20171;-67
2021/10/03 12:44:23;;;;;;;5.20;4.75;;;;;;;;;;5073999;28;20478;-75
2021/10/03 12:46:49;;;;;;;8.48;4.00;;;;;;;;;;5075023;28;20040;-67
2021/10/03 12:49:15;;;;;;;5.82;4.65;;;;;;;;;;5073577;28;20025;-68
2021/10/03 12:51:41;;;;;;;4.13;3.72;;;;;;;;;;5073635;28;20119;-68
2021/10/03 12:54:07;;;;;;;4.45;3.97;;;;;;;;;;5072974;28;20020;-67
2021/10/03 12:56:34;;;;;;;3.80;3.42;;;;;;;;;;5072712;28;20052;-66
2021/10/03 12:59:00;;;;;;;6.72;4.40;;;;;;;;;;5072908;28;20029;-67
2021/10/03 13:01:26;;;;;;;4.97;4.22;;;;;;;;;;5075520;28;20652;-70
2021/10/03 13:03:52;;;;;;;4.40;4.00;;;;;;;;;;5072967;28;20029;-69
2021/10/03 13:06:19;;;;;;;4.70;3.83;;;;;;;;;;5072605;28;20024;-68
2021/10/03 13:08:47;;;;;;;7.18;4.63;;;;;;;;;;5072371;28;20058;-67
2021/10/03 13:11:13;;;;;;;5.05;4.07;;;;;;;;;;5072549;28;20017;-67
2021/10/03 13:13:39;;;;;;;4.57;3.65;;;;;;;;;;5073040;28;20071;-68
2021/10/03 13:16:06;;;;;;;6.57;3.25;;;;;;;;;;5072269;28;20059;-67
2021/10/03 13:18:34;;;;;;;4.05;3.65;;;;;;;;;;5072548;28;20027;-67
2021/10/03 13:21:02;;;;;;;4.22;3.83;;;;;;;;;;5072241;28;20052;-66
2021/10/03 13:23:29;;;;;;;6.45;4.32;;;;;;;;;;5073778;28;20462;-66
2021/10/03 13:25:55;;;;;;;5.20;4.70;;;;;;;;;;5073412;28;20036;-66
2021/10/03 13:28:21;;;;;;;5.88;3.95;;;;;;;;;;5073363;28;20020;-67
2021/10/03 13:30:47;;;;;;;6.45;3.95;;;;;;;;;;5073308;28;20070;-67
2021/10/03 13:33:13;;;;;;;5.10;4.53;;;;;;;;;;5073226;28;20040;-67
2021/10/03 13:35:42;;;;;;;4.50;4.15;;;;;;;;;;5073655;28;20027;-66
2021/10/03 13:38:08;;;;;;;5.18;4.65;;;;;;;;;;5072916;28;20036;-68
2021/10/03 13:40:35;;;;;;;6.20;4.20;;;;;;;;;;5068784;28;20028;-67
2021/10/03 13:43:01;;;;;;;7.47;5.47;;;;;;;;;;5073187;28;20024;-65
2021/10/03 13:45:27;;;;;;;5.90;4.45;;;;;;;;;;5073255;28;20111;-68
2021/10/03 13:50:57;;;;;;;5.68;5.05;;;;;;;;;;5064833;28;20123;-69
2021/10/03 13:53:28;;;;;;;6.30;5.78;;;;;;;;;;5074261;28;20039;-69
2021/10/03 13:55:54;;;;;;;6.10;5.50;;;;;;;;;;5074223;28;20052;-69
2021/10/03 13:58:21;;;;;;;6.43;5.57;;;;;;;;;;5068808;28;20060;-71
2021/10/03 14:00:47;;;;;;;7.57;5.70;;;;;;;;;;5073024;28;20115;-69
2021/10/03 14:03:13;;;;;;;5.10;4.70;;;;;;;;;;5074330;28;20052;-70
2021/10/03 14:05:39;;;;;;;8.98;4.22;;;;;;;;;;5073953;28;20028;-70
2021/10/03 14:08:05;;;;;;;5.22;4.72;;;;;;;;;;5073667;28;20111;-69
2021/10/03 14:10:31;;;;;;;5.80;5.20;;;;;;;;;;5072728;28;20102;-69
2021/10/03 14:12:57;;;;;;;6.90;4.50;;;;;;;;;;5073475;28;20072;-68
2021/10/03 14:15:23;;;;;;;6.10;5.45;;;;;;;;;;5073022;28;20032;-69
2021/10/03 14:17:50;;;;;;;5.40;4.18;;;;;;;;;;5073004;28;20066;-69
2021/10/03 14:20:17;;;;;;;6.82;5.53;;;;;;;;;;5073560;28;20398;-69
2021/10/03 14:22:43;;;;;;;8.13;5.88;;;;;;;;;;5073357;28;20169;-68
2021/10/03 14:25:09;;;;;;;5.45;4.78;;;;;;;;;;5073216;28;20021;-69
2021/10/03 14:27:35;;;;;;;6.88;4.88;;;;;;;;;;5073664;28;20028;-68
2021/10/03 14:30:01;;;;;;;6.47;4.45;;;;;;;;;;5073066;28;20565;-68
2021/10/03 14:32:27;;;;;;;11.95;6.95;;;;;;;;;;5073286;28;20131;-68
2021/10/03 14:34:53;;;;;;;8.88;7.43;;;;;;;;;;5073971;28;20030;-69
2021/10/03 14:37:19;;;;;;;7.18;5.90;;;;;;;;;;5073806;28;20488;-68